< < Back
Terminal Aerodrome Forecast


Current Version              Previous Versions:   1  2  3  4  5  6  7  8  9  

Terminal Aerodrome Forecast

727
FTUS42 KTAE 200500
TAFABY
TAF
KABY 200520Z 2006/2106 05005KT P6SM SKC
     FM201200 04008KT P6SM BKN007
     FM201500 04010KT P6SM BKN020
     FM201800 04010KT P6SM SCT030
     FM202000 04010KT P6SM VCSH BKN040=

Latest METAR

948
SAUS70 KWBC 200800
MTRABY
METAR KABY 200753Z 06008KT 10SM OVC006 21/20 A3003 RMK AO2 SLP169
T02110200 PNO $


USA.gov is the U.S. government's official web portal to all federal, state and local government web resources and services.